Fentress, Virginia
Current Conditions -  °F | °C
As of 4:35 PM on Monday 24 Nov 2014 (Local Time) from KCPK Reporting Station
Overcast Overcast  
Wind Chill: 73°   Ceiling: 6000
Heat Index: 73°   Visibility: 10mi
Dew Point: 68°   Wind: 13mph
Humidity: 83%   Direction: 180°S
Pressure: 29.79"   Gusts: 20mph
Location:  36.6227°N, 76.2654°W
Report Text: KCPK 242135Z AUTO 18011G17KT 10SM SCT018 OVC060 23/20 A2979 RMK AO2
Loading
Personal Weather Stations






























Interactive Weather Map New forecast layout! Learn more

10-Day Weather Forecast

Advertisements
Track Severe Weather on mobile